sensor_id;sensor_type;location;lat;lon;timestamp;temperature;humidity
61207;DHT22;47070;49.212;8.084;2022-09-02T00:00:34;18.20;99.90
61207;DHT22;47070;49.212;8.084;2022-09-02T00:04:35;18.20;99.90
61207;DHT22;47070;49.212;8.084;2022-09-02T00:08:35;18.30;99.90
61207;DHT22;47070;49.212;8.084;2022-09-02T00:12:36;18.20;99.90
61207;DHT22;47070;49.212;8.084;2022-09-02T00:16:38;18.10;99.90
61207;DHT22;47070;49.212;8.084;2022-09-02T00:20:41;18.10;99.90
61207;DHT22;47070;49.212;8.084;2022-09-02T00:24:42;18.10;99.90
61207;DHT22;47070;49.212;8.084;2022-09-02T00:28:42;17.90;99.90
61207;DHT22;47070;49.212;8.084;2022-09-02T00:32:43;17.90;99.90
61207;DHT22;47070;49.212;8.084;2022-09-02T00:36:43;18.00;99.90
61207;DHT22;47070;49.212;8.084;2022-09-02T00:40:49;18.00;99.90
61207;DHT22;47070;49.212;8.084;2022-09-02T00:44:50;17.80;99.90
61207;DHT22;47070;49.212;8.084;2022-09-02T00:49:11;17.90;99.90
61207;DHT22;47070;49.212;8.084;2022-09-02T00:53:13;18.00;99.90
61207;DHT22;47070;49.212;8.084;2022-09-02T00:57:16;18.20;99.90
61207;DHT22;47070;49.212;8.084;2022-09-02T01:01:19;18.00;99.90
61207;DHT22;47070;49.212;8.084;2022-09-02T01:05:24;18.10;99.90
61207;DHT22;47070;49.212;8.084;2022-09-02T01:09:25;18.00;99.90
61207;DHT22;47070;49.212;8.084;2022-09-02T01:13:28;17.90;99.90
61207;DHT22;47070;49.212;8.084;2022-09-02T01:17:29;17.80;99.90
61207;DHT22;47070;49.212;8.084;2022-09-02T01:21:33;17.80;99.90
61207;DHT22;47070;49.212;8.084;2022-09-02T01:25:35;17.90;99.90
61207;DHT22;47070;49.212;8.084;2022-09-02T01:29:35;17.80;99.90
61207;DHT22;47070;49.212;8.084;2022-09-02T01:33:36;17.80;99.90
61207;DHT22;47070;49.212;8.084;2022-09-02T01:37:37;18.00;99.90
61207;DHT22;47070;49.212;8.084;2022-09-02T01:41:38;18.00;99.90
61207;DHT22;47070;49.212;8.084;2022-09-02T01:45:40;18.00;99.90
61207;DHT22;47070;49.212;8.084;2022-09-02T01:49:42;17.90;99.90
61207;DHT22;47070;49.212;8.084;2022-09-02T01:53:43;17.80;99.90
61207;DHT22;47070;49.212;8.084;2022-09-02T01:57:43;17.90;99.90
61207;DHT22;47070;49.212;8.084;2022-09-02T02:01:44;17.80;99.90
61207;DHT22;47070;49.212;8.084;2022-09-02T02:05:45;17.90;99.90
61207;DHT22;47070;49.212;8.084;2022-09-02T02:09:45;17.80;99.90
61207;DHT22;47070;49.212;8.084;2022-09-02T02:13:46;17.80;99.90
61207;DHT22;47070;49.212;8.084;2022-09-02T02:17:46;17.80;99.90
61207;DHT22;47070;49.212;8.084;2022-09-02T02:21:47;17.60;99.90
61207;DHT22;47070;49.212;8.084;2022-09-02T02:25:48;17.60;99.90
61207;DHT22;47070;49.212;8.084;2022-09-02T02:29:48;17.50;99.90
61207;DHT22;47070;49.212;8.084;2022-09-02T02:33:49;17.50;99.90
61207;DHT22;47070;49.212;8.084;2022-09-02T02:37:50;17.50;99.90
61207;DHT22;47070;49.212;8.084;2022-09-02T02:41:51;17.20;99.90
61207;DHT22;47070;49.212;8.084;2022-09-02T02:45:52;17.30;99.90
61207;DHT22;47070;49.212;8.084;2022-09-02T02:49:53;17.30;99.90
61207;DHT22;47070;49.212;8.084;2022-09-02T02:53:54;17.40;99.90
61207;DHT22;47070;49.212;8.084;2022-09-02T02:57:54;17.30;99.90
61207;DHT22;47070;49.212;8.084;2022-09-02T03:01:55;17.10;99.90
61207;DHT22;47070;49.212;8.084;2022-09-02T03:05:55;17.10;99.90
61207;DHT22;47070;49.212;8.084;2022-09-02T03:09:56;16.90;99.90
61207;DHT22;47070;49.212;8.084;2022-09-02T03:13:57;17.10;99.90
61207;DHT22;47070;49.212;8.084;2022-09-02T03:17:58;17.20;99.90
61207;DHT22;47070;49.212;8.084;2022-09-02T03:21:58;17.20;99.90
61207;DHT22;47070;49.212;8.084;2022-09-02T03:25:59;17.20;99.90
61207;DHT22;47070;49.212;8.084;2022-09-02T03:30:00;17.00;99.90
61207;DHT22;47070;49.212;8.084;2022-09-02T03:34:01;17.10;99.90
61207;DHT22;47070;49.212;8.084;2022-09-02T03:38:02;17.20;99.90
61207;DHT22;47070;49.212;8.084;2022-09-02T03:42:02;17.20;99.90
61207;DHT22;47070;49.212;8.084;2022-09-02T03:46:03;17.00;99.90
61207;DHT22;47070;49.212;8.084;2022-09-02T03:50:04;16.90;99.90
61207;DHT22;47070;49.212;8.084;2022-09-02T03:54:06;16.70;99.90
61207;DHT22;47070;49.212;8.084;2022-09-02T03:58:07;16.70;99.90
61207;DHT22;47070;49.212;8.084;2022-09-02T04:02:08;16.80;99.90
61207;DHT22;47070;49.212;8.084;2022-09-02T04:06:09;16.70;99.90
61207;DHT22;47070;49.212;8.084;2022-09-02T04:10:12;16.70;99.90
61207;DHT22;47070;49.212;8.084;2022-09-02T04:14:12;16.50;99.90
61207;DHT22;47070;49.212;8.084;2022-09-02T04:18:14;16.70;99.90
61207;DHT22;47070;49.212;8.084;2022-09-02T04:22:15;16.50;99.90
61207;DHT22;47070;49.212;8.084;2022-09-02T04:26:17;16.60;99.90
61207;DHT22;47070;49.212;8.084;2022-09-02T04:30:17;16.60;99.90
61207;DHT22;47070;49.212;8.084;2022-09-02T04:34:18;16.40;99.90
61207;DHT22;47070;49.212;8.084;2022-09-02T04:38:19;16.50;99.90
61207;DHT22;47070;49.212;8.084;2022-09-02T04:42:19;16.60;99.90
61207;DHT22;47070;49.212;8.084;2022-09-02T04:46:20;16.60;99.90
61207;DHT22;47070;49.212;8.084;2022-09-02T04:50:21;16.60;99.90
61207;DHT22;47070;49.212;8.084;2022-09-02T04:54:22;16.60;99.90
61207;DHT22;47070;49.212;8.084;2022-09-02T04:58:22;16.60;99.90
61207;DHT22;47070;49.212;8.084;2022-09-02T05:02:23;16.60;99.90
61207;DHT22;47070;49.212;8.084;2022-09-02T05:06:26;16.70;99.90
61207;DHT22;47070;49.212;8.084;2022-09-02T05:10:27;16.50;99.90
61207;DHT22;47070;49.212;8.084;2022-09-02T05:14:28;16.40;99.90
61207;DHT22;47070;49.212;8.084;2022-09-02T05:18:29;16.60;99.90
61207;DHT22;47070;49.212;8.084;2022-09-02T05:22:30;16.60;99.90
61207;DHT22;47070;49.212;8.084;2022-09-02T05:26:31;16.60;99.90
61207;DHT22;47070;49.212;8.084;2022-09-02T05:30:39;16.50;99.90
61207;DHT22;47070;49.212;8.084;2022-09-02T05:34:40;16.70;99.90
61207;DHT22;47070;49.212;8.084;2022-09-02T05:38:42;16.80;99.90
61207;DHT22;47070;49.212;8.084;2022-09-02T05:42:43;16.90;99.90
61207;DHT22;47070;49.212;8.084;2022-09-02T05:46:43;16.50;99.90
61207;DHT22;47070;49.212;8.084;2022-09-02T05:50:44;16.80;99.90
61207;DHT22;47070;49.212;8.084;2022-09-02T05:54:44;16.90;99.90
61207;DHT22;47070;49.212;8.084;2022-09-02T05:58:45;16.90;99.90
61207;DHT22;47070;49.212;8.084;2022-09-02T06:02:45;16.90;99.90
61207;DHT22;47070;49.212;8.084;2022-09-02T06:06:46;17.00;99.90
61207;DHT22;47070;49.212;8.084;2022-09-02T06:10:46;16.90;99.90
61207;DHT22;47070;49.212;8.084;2022-09-02T06:14:47;17.00;99.90
61207;DHT22;47070;49.212;8.084;2022-09-02T06:18:49;17.20;99.90
61207;DHT22;47070;49.212;8.084;2022-09-02T06:22:49;17.30;99.90
61207;DHT22;47070;49.212;8.084;2022-09-02T06:26:50;17.50;99.90
61207;DHT22;47070;49.212;8.084;2022-09-02T06:30:52;17.40;99.90
61207;DHT22;47070;49.212;8.084;2022-09-02T06:34:52;17.40;99.90
61207;DHT22;47070;49.212;8.084;2022-09-02T06:38:55;17.60;99.90
61207;DHT22;47070;49.212;8.084;2022-09-02T06:42:56;17.60;99.90
61207;DHT22;47070;49.212;8.084;2022-09-02T06:46:57;17.70;99.90
61207;DHT22;47070;49.212;8.084;2022-09-02T06:50:58;17.80;99.90
61207;DHT22;47070;49.212;8.084;2022-09-02T06:55:00;17.80;99.90
61207;DHT22;47070;49.212;8.084;2022-09-02T06:59:01;17.70;99.90
61207;DHT22;47070;49.212;8.084;2022-09-02T07:03:03;17.80;99.90
61207;DHT22;47070;49.212;8.084;2022-09-02T07:07:22;17.90;99.90
61207;DHT22;47070;49.212;8.084;2022-09-02T07:11:23;18.30;99.90
61207;DHT22;47070;49.212;8.084;2022-09-02T07:15:23;17.90;99.90
61207;DHT22;47070;49.212;8.084;2022-09-02T07:19:25;18.10;99.90
61207;DHT22;47070;49.212;8.084;2022-09-02T07:23:25;18.30;99.90
61207;DHT22;47070;49.212;8.084;2022-09-02T07:27:26;18.50;99.90
61207;DHT22;47070;49.212;8.084;2022-09-02T07:31:26;18.40;99.90
61207;DHT22;47070;49.212;8.084;2022-09-02T07:35:28;18.70;99.90
61207;DHT22;47070;49.212;8.084;2022-09-02T07:39:30;18.90;99.90
61207;DHT22;47070;49.212;8.084;2022-09-02T07:43:32;18.70;99.90
61207;DHT22;47070;49.212;8.084;2022-09-02T07:47:33;19.00;99.90
61207;DHT22;47070;49.212;8.084;2022-09-02T07:51:36;18.80;99.90
61207;DHT22;47070;49.212;8.084;2022-09-02T07:55:37;18.60;99.90
61207;DHT22;47070;49.212;8.084;2022-09-02T07:59:40;19.10;99.90
61207;DHT22;47070;49.212;8.084;2022-09-02T08:03:42;19.00;99.90
61207;DHT22;47070;49.212;8.084;2022-09-02T08:07:44;19.10;99.90
61207;DHT22;47070;49.212;8.084;2022-09-02T08:11:46;19.30;99.90
61207;DHT22;47070;49.212;8.084;2022-09-02T08:15:47;19.30;99.90
61207;DHT22;47070;49.212;8.084;2022-09-02T08:19:47;19.20;99.90
61207;DHT22;47070;49.212;8.084;2022-09-02T08:23:48;19.50;99.90
61207;DHT22;47070;49.212;8.084;2022-09-02T08:27:52;19.20;99.90
61207;DHT22;47070;49.212;8.084;2022-09-02T08:31:53;19.60;99.90
61207;DHT22;47070;49.212;8.084;2022-09-02T08:35:53;19.70;99.90
61207;DHT22;47070;49.212;8.084;2022-09-02T08:39:54;19.80;99.90
61207;DHT22;47070;49.212;8.084;2022-09-02T08:43:57;19.90;99.90
61207;DHT22;47070;49.212;8.084;2022-09-02T08:48:50;20.00;99.90
61207;DHT22;47070;49.212;8.084;2022-09-02T08:56:31;20.50;99.90
61207;DHT22;47070;49.212;8.084;2022-09-02T09:00:37;20.40;99.90
61207;DHT22;47070;49.212;8.084;2022-09-02T09:21:57;21.50;99.40
61207;DHT22;47070;49.212;8.084;2022-09-02T09:26:12;21.80;99.30
61207;DHT22;47070;49.212;8.084;2022-09-02T09:30:13;21.50;99.90
61207;DHT22;47070;49.212;8.084;2022-09-02T09:34:14;21.30;96.90
61207;DHT22;47070;49.212;8.084;2022-09-02T09:38:14;21.50;99.30
61207;DHT22;47070;49.212;8.084;2022-09-02T09:42:15;21.80;98.50
61207;DHT22;47070;49.212;8.084;2022-09-02T09:50:21;22.30;96.50
61207;DHT22;47070;49.212;8.084;2022-09-02T09:54:25;22.50;99.90
61207;DHT22;47070;49.212;8.084;2022-09-02T09:58:34;22.50;99.90
61207;DHT22;47070;49.212;8.084;2022-09-02T10:02:49;22.80;95.70
61207;DHT22;47070;49.212;8.084;2022-09-02T10:06:51;22.60;95.10
61207;DHT22;47070;49.212;8.084;2022-09-02T10:14:56;22.60;93.60
61207;DHT22;47070;49.212;8.084;2022-09-02T10:19:37;22.60;93.50
61207;DHT22;47070;49.212;8.084;2022-09-02T10:24:03;22.70;93.80
61207;DHT22;47070;49.212;8.084;2022-09-02T10:28:30;23.10;97.90
61207;DHT22;47070;49.212;8.084;2022-09-02T10:37:22;22.80;97.00
61207;DHT22;47070;49.212;8.084;2022-09-02T10:41:42;23.30;95.40
61207;DHT22;47070;49.212;8.084;2022-09-02T10:45:49;23.30;98.20
61207;DHT22;47070;49.212;8.084;2022-09-02T10:50:25;23.50;94.20
61207;DHT22;47070;49.212;8.084;2022-09-02T10:59:18;23.70;92.80
61207;DHT22;47070;49.212;8.084;2022-09-02T11:03:28;23.60;94.20
61207;DHT22;47070;49.212;8.084;2022-09-02T11:07:38;23.70;95.70
61207;DHT22;47070;49.212;8.084;2022-09-02T11:11:54;23.70;91.00
61207;DHT22;47070;49.212;8.084;2022-09-02T11:16:09;23.80;92.00
61207;DHT22;47070;49.212;8.084;2022-09-02T11:20:37;23.80;93.30
61207;DHT22;47070;49.212;8.084;2022-09-02T11:24:50;23.80;90.70
61207;DHT22;47070;49.212;8.084;2022-09-02T11:29:06;23.80;97.90
61207;DHT22;47070;49.212;8.084;2022-09-02T11:33:31;24.00;94.40
61207;DHT22;47070;49.212;8.084;2022-09-02T11:37:42;24.10;95.60
61207;DHT22;47070;49.212;8.084;2022-09-02T11:42:15;24.20;98.70
61207;DHT22;47070;49.212;8.084;2022-09-02T11:46:52;24.50;97.70
61207;DHT22;47070;49.212;8.084;2022-09-02T11:55:39;24.60;92.00
61207;DHT22;47070;49.212;8.084;2022-09-02T12:08:09;26.40;88.20
61207;DHT22;47070;49.212;8.084;2022-09-02T12:16:42;27.30;88.60
61207;DHT22;47070;49.212;8.084;2022-09-02T12:25:04;27.80;85.70
61207;DHT22;47070;49.212;8.084;2022-09-02T12:29:12;27.90;78.50
61207;DHT22;47070;49.212;8.084;2022-09-02T12:33:31;28.10;79.80
61207;DHT22;47070;49.212;8.084;2022-09-02T12:37:56;28.20;82.70
61207;DHT22;47070;49.212;8.084;2022-09-02T12:46:06;28.90;84.30
61207;DHT22;47070;49.212;8.084;2022-09-02T12:54:46;29.60;86.40
61207;DHT22;47070;49.212;8.084;2022-09-02T12:58:55;29.80;68.70
61207;DHT22;47070;49.212;8.084;2022-09-02T13:16:10;30.80;61.90
61207;DHT22;47070;49.212;8.084;2022-09-02T13:33:35;31.90;60.60
61207;DHT22;47070;49.212;8.084;2022-09-02T13:37:38;32.60;70.50
61207;DHT22;47070;49.212;8.084;2022-09-02T13:41:38;32.40;60.00
61207;DHT22;47070;49.212;8.084;2022-09-02T13:45:39;32.80;59.50
61207;DHT22;47070;49.212;8.084;2022-09-02T13:49:41;33.10;64.00
61207;DHT22;47070;49.212;8.084;2022-09-02T13:53:44;33.20;57.70
61207;DHT22;47070;49.212;8.084;2022-09-02T13:58:03;33.80;55.60
61207;DHT22;47070;49.212;8.084;2022-09-02T14:02:27;33.20;56.10
61207;DHT22;47070;49.212;8.084;2022-09-02T14:06:33;33.40;64.50
61207;DHT22;47070;49.212;8.084;2022-09-02T14:10:36;33.00;57.90
61207;DHT22;47070;49.212;8.084;2022-09-02T14:14:40;31.50;54.20
61207;DHT22;47070;49.212;8.084;2022-09-02T14:23:16;29.40;59.70
61207;DHT22;47070;49.212;8.084;2022-09-02T14:27:21;28.80;65.60
61207;DHT22;47070;49.212;8.084;2022-09-02T14:31:25;28.30;64.50
61207;DHT22;47070;49.212;8.084;2022-09-02T14:35:29;27.80;63.00
61207;DHT22;47070;49.212;8.084;2022-09-02T14:39:30;27.20;61.30
61207;DHT22;47070;49.212;8.084;2022-09-02T14:43:54;27.20;74.10
61207;DHT22;47070;49.212;8.084;2022-09-02T14:48:01;27.10;72.50
61207;DHT22;47070;49.212;8.084;2022-09-02T14:52:26;26.90;72.90
61207;DHT22;47070;49.212;8.084;2022-09-02T14:56:48;26.80;64.50
61207;DHT22;47070;49.212;8.084;2022-09-02T15:00:51;26.40;83.70
61207;DHT22;47070;49.212;8.084;2022-09-02T15:04:54;26.30;68.60
61207;DHT22;47070;49.212;8.084;2022-09-02T15:08:54;26.20;74.00
61207;DHT22;47070;49.212;8.084;2022-09-02T15:12:57;26.30;70.30
61207;DHT22;47070;49.212;8.084;2022-09-02T15:16:57;26.20;66.30
61207;DHT22;47070;49.212;8.084;2022-09-02T15:20:58;26.20;73.80
61207;DHT22;47070;49.212;8.084;2022-09-02T15:24:58;26.20;67.10
61207;DHT22;47070;49.212;8.084;2022-09-02T15:29:00;26.20;67.10
61207;DHT22;47070;49.212;8.084;2022-09-02T15:33:04;26.10;64.40
61207;DHT22;47070;49.212;8.084;2022-09-02T15:37:04;25.90;67.90
61207;DHT22;47070;49.212;8.084;2022-09-02T15:41:17;25.90;69.60
61207;DHT22;47070;49.212;8.084;2022-09-02T15:45:18;25.80;67.60
61207;DHT22;47070;49.212;8.084;2022-09-02T15:49:20;25.80;74.90
61207;DHT22;47070;49.212;8.084;2022-09-02T15:53:21;25.70;64.20
61207;DHT22;47070;49.212;8.084;2022-09-02T15:57:21;25.60;64.80
61207;DHT22;47070;49.212;8.084;2022-09-02T16:01:27;25.40;66.10
61207;DHT22;47070;49.212;8.084;2022-09-02T16:05:27;25.50;73.00
61207;DHT22;47070;49.212;8.084;2022-09-02T16:09:31;25.50;71.40
61207;DHT22;47070;49.212;8.084;2022-09-02T16:13:33;25.40;68.40
61207;DHT22;47070;49.212;8.084;2022-09-02T16:17:34;25.50;75.00
61207;DHT22;47070;49.212;8.084;2022-09-02T16:21:35;25.30;74.50
61207;DHT22;47070;49.212;8.084;2022-09-02T16:25:38;25.20;65.70
61207;DHT22;47070;49.212;8.084;2022-09-02T16:29:38;25.30;67.20
61207;DHT22;47070;49.212;8.084;2022-09-02T16:33:40;25.20;68.70
61207;DHT22;47070;49.212;8.084;2022-09-02T16:37:41;25.20;71.80
61207;DHT22;47070;49.212;8.084;2022-09-02T16:41:45;25.00;71.80
61207;DHT22;47070;49.212;8.084;2022-09-02T16:45:46;25.00;70.20
61207;DHT22;47070;49.212;8.084;2022-09-02T16:49:47;25.00;76.70
61207;DHT22;47070;49.212;8.084;2022-09-02T16:53:55;24.90;71.30
61207;DHT22;47070;49.212;8.084;2022-09-02T16:57:57;24.80;72.70
61207;DHT22;47070;49.212;8.084;2022-09-02T17:01:59;24.70;74.00
61207;DHT22;47070;49.212;8.084;2022-09-02T17:06:00;24.40;75.00
61207;DHT22;47070;49.212;8.084;2022-09-02T17:10:01;24.30;74.70
61207;DHT22;47070;49.212;8.084;2022-09-02T17:14:03;24.00;77.10
61207;DHT22;47070;49.212;8.084;2022-09-02T17:18:04;24.10;74.30
61207;DHT22;47070;49.212;8.084;2022-09-02T17:22:05;23.90;76.60
61207;DHT22;47070;49.212;8.084;2022-09-02T17:26:05;23.80;76.40
61207;DHT22;47070;49.212;8.084;2022-09-02T17:30:07;23.60;80.60
61207;DHT22;47070;49.212;8.084;2022-09-02T17:34:10;23.40;80.50
61207;DHT22;47070;49.212;8.084;2022-09-02T17:38:11;23.10;80.70
61207;DHT22;47070;49.212;8.084;2022-09-02T17:42:11;23.10;84.60
61207;DHT22;47070;49.212;8.084;2022-09-02T17:46:12;23.00;84.20
61207;DHT22;47070;49.212;8.084;2022-09-02T17:50:13;22.90;83.10
61207;DHT22;47070;49.212;8.084;2022-09-02T17:54:14;22.60;82.70
61207;DHT22;47070;49.212;8.084;2022-09-02T17:58:17;22.50;83.50
61207;DHT22;47070;49.212;8.084;2022-09-02T18:06:38;22.20;85.10
61207;DHT22;47070;49.212;8.084;2022-09-02T18:10:51;22.30;83.20
61207;DHT22;47070;49.212;8.084;2022-09-02T18:14:57;22.00;84.70
61207;DHT22;47070;49.212;8.084;2022-09-02T18:19:08;21.90;83.30
61207;DHT22;47070;49.212;8.084;2022-09-02T18:23:37;21.80;83.00
61207;DHT22;47070;49.212;8.084;2022-09-02T18:33:01;21.70;82.60
61207;DHT22;47070;49.212;8.084;2022-09-02T18:37:00;21.70;82.10
61207;DHT22;47070;49.212;8.084;2022-09-02T18:45:46;21.50;81.60
61207;DHT22;47070;49.212;8.084;2022-09-02T18:49:47;21.50;80.80
61207;DHT22;47070;49.212;8.084;2022-09-02T18:54:05;21.50;82.40
61207;DHT22;47070;49.212;8.084;2022-09-02T19:02:56;21.50;80.70
61207;DHT22;47070;49.212;8.084;2022-09-02T19:07:00;21.60;79.80
61207;DHT22;47070;49.212;8.084;2022-09-02T19:11:20;21.40;80.40
61207;DHT22;47070;49.212;8.084;2022-09-02T19:15:21;21.40;80.10
61207;DHT22;47070;49.212;8.084;2022-09-02T19:19:23;21.30;79.90
61207;DHT22;47070;49.212;8.084;2022-09-02T19:23:25;21.20;80.00
61207;DHT22;47070;49.212;8.084;2022-09-02T19:27:38;21.30;80.60
61207;DHT22;47070;49.212;8.084;2022-09-02T19:31:40;21.20;80.80
61207;DHT22;47070;49.212;8.084;2022-09-02T19:35:44;21.20;79.60
61207;DHT22;47070;49.212;8.084;2022-09-02T19:39:45;21.30;79.70
61207;DHT22;47070;49.212;8.084;2022-09-02T19:43:51;21.10;80.70
61207;DHT22;47070;49.212;8.084;2022-09-02T19:47:53;20.90;81.20
61207;DHT22;47070;49.212;8.084;2022-09-02T19:51:53;20.90;80.50
61207;DHT22;47070;49.212;8.084;2022-09-02T19:55:56;21.00;80.30
61207;DHT22;47070;49.212;8.084;2022-09-02T19:59:56;20.90;80.00
61207;DHT22;47070;49.212;8.084;2022-09-02T20:03:57;21.00;80.50
61207;DHT22;47070;49.212;8.084;2022-09-02T20:07:57;20.70;80.70
61207;DHT22;47070;49.212;8.084;2022-09-02T20:11:58;20.80;80.40
61207;DHT22;47070;49.212;8.084;2022-09-02T20:15:59;20.70;81.40
61207;DHT22;47070;49.212;8.084;2022-09-02T20:20:00;20.70;81.80
61207;DHT22;47070;49.212;8.084;2022-09-02T20:24:07;20.60;81.40
61207;DHT22;47070;49.212;8.084;2022-09-02T20:32:54;20.90;81.10
61207;DHT22;47070;49.212;8.084;2022-09-02T20:37:37;20.60;82.20
61207;DHT22;47070;49.212;8.084;2022-09-02T20:55:00;20.60;81.10
61207;DHT22;47070;49.212;8.084;2022-09-02T21:03:12;20.60;86.20
61207;DHT22;47070;49.212;8.084;2022-09-02T21:07:27;20.60;82.30
61207;DHT22;47070;49.212;8.084;2022-09-02T21:11:38;20.60;85.90
61207;DHT22;47070;49.212;8.084;2022-09-02T21:15:48;20.50;83.60
61207;DHT22;47070;49.212;8.084;2022-09-02T21:24:37;20.80;81.70
61207;DHT22;47070;49.212;8.084;2022-09-02T21:28:50;20.90;82.40
61207;DHT22;47070;49.212;8.084;2022-09-02T21:32:59;20.90;80.80
61207;DHT22;47070;49.212;8.084;2022-09-02T21:37:02;20.70;83.40
61207;DHT22;47070;49.212;8.084;2022-09-02T21:41:28;20.70;81.80
61207;DHT22;47070;49.212;8.084;2022-09-02T21:46:32;20.80;84.10
61207;DHT22;47070;49.212;8.084;2022-09-02T21:50:21;20.70;82.20
61207;DHT22;47070;49.212;8.084;2022-09-02T21:54:42;20.70;82.50
61207;DHT22;47070;49.212;8.084;2022-09-02T22:03:38;20.60;83.00
61207;DHT22;47070;49.212;8.084;2022-09-02T22:12:15;20.50;83.30
61207;DHT22;47070;49.212;8.084;2022-09-02T22:16:32;20.60;83.70
61207;DHT22;47070;49.212;8.084;2022-09-02T22:20:35;20.60;83.30
61207;DHT22;47070;49.212;8.084;2022-09-02T22:24:39;20.80;83.10
61207;DHT22;47070;49.212;8.084;2022-09-02T22:28:44;20.80;83.00
61207;DHT22;47070;49.212;8.084;2022-09-02T22:37:03;20.60;83.70
61207;DHT22;47070;49.212;8.084;2022-09-02T22:45:31;21.00;82.70
61207;DHT22;47070;49.212;8.084;2022-09-02T22:49:55;20.90;82.60
61207;DHT22;47070;49.212;8.084;2022-09-02T22:54:17;20.90;82.80
61207;DHT22;47070;49.212;8.084;2022-09-02T23:06:44;20.80;83.60
61207;DHT22;47070;49.212;8.084;2022-09-02T23:11:04;20.70;85.80
61207;DHT22;47070;49.212;8.084;2022-09-02T23:15:36;20.80;84.30
61207;DHT22;47070;49.212;8.084;2022-09-02T23:19:55;20.60;84.50
61207;DHT22;47070;49.212;8.084;2022-09-02T23:24:26;20.70;85.40
61207;DHT22;47070;49.212;8.084;2022-09-02T23:37:19;20.50;85.80
61207;DHT22;47070;49.212;8.084;2022-09-02T23:41:26;20.60;85.60
61207;DHT22;47070;49.212;8.084;2022-09-02T23:45:31;20.50;85.80
61207;DHT22;47070;49.212;8.084;2022-09-02T23:49:45;20.50;85.90
61207;DHT22;47070;49.212;8.084;2022-09-02T23:53:58;20.60;85.70
61207;DHT22;47070;49.212;8.084;2022-09-02T23:58:40;20.60;86.40
